sensor_id;sensor_type;location;lat;lon;timestamp;P1;durP1;ratioP1;P2;durP2;ratioP2
58308;SDS011;44117;57.142;24.826;2022-12-13T00:01:32;19.95;;;11.45;;
58308;SDS011;44117;57.142;24.826;2022-12-13T00:04:00;17.73;;;11.25;;
58308;SDS011;44117;57.142;24.826;2022-12-13T00:06:30;17.83;;;9.65;;
58308;SDS011;44117;57.142;24.826;2022-12-13T00:08:58;17.63;;;10.60;;
58308;SDS011;44117;57.142;24.826;2022-12-13T00:11:26;15.75;;;9.70;;
58308;SDS011;44117;57.142;24.826;2022-12-13T00:13:54;18.33;;;8.55;;
58308;SDS011;44117;57.142;24.826;2022-12-13T00:16:22;22.58;;;11.93;;
58308;SDS011;44117;57.142;24.826;2022-12-13T00:18:55;16.33;;;7.47;;
58308;SDS011;44117;57.142;24.826;2022-12-13T00:21:25;20.45;;;12.07;;
58308;SDS011;44117;57.142;24.826;2022-12-13T00:23:54;13.73;;;8.43;;
58308;SDS011;44117;57.142;24.826;2022-12-13T00:26:24;19.23;;;9.48;;
58308;SDS011;44117;57.142;24.826;2022-12-13T00:28:53;18.00;;;10.13;;
58308;SDS011;44117;57.142;24.826;2022-12-13T00:31:21;18.20;;;9.02;;
58308;SDS011;44117;57.142;24.826;2022-12-13T00:34:11;15.13;;;7.82;;
58308;SDS011;44117;57.142;24.826;2022-12-13T00:36:38;20.88;;;9.07;;
58308;SDS011;44117;57.142;24.826;2022-12-13T00:39:06;22.13;;;9.50;;
58308;SDS011;44117;57.142;24.826;2022-12-13T00:41:34;18.38;;;9.68;;
58308;SDS011;44117;57.142;24.826;2022-12-13T00:44:02;22.80;;;11.85;;
58308;SDS011;44117;57.142;24.826;2022-12-13T00:46:30;22.83;;;11.10;;
58308;SDS011;44117;57.142;24.826;2022-12-13T00:48:59;21.92;;;10.13;;
58308;SDS011;44117;57.142;24.826;2022-12-13T00:51:28;19.05;;;11.48;;
58308;SDS011;44117;57.142;24.826;2022-12-13T00:53:57;23.10;;;10.00;;
58308;SDS011;44117;57.142;24.826;2022-12-13T00:56:26;22.55;;;10.25;;
58308;SDS011;44117;57.142;24.826;2022-12-13T00:58:56;17.30;;;9.63;;
58308;SDS011;44117;57.142;24.826;2022-12-13T01:01:25;17.90;;;8.77;;
58308;SDS011;44117;57.142;24.826;2022-12-13T01:03:56;17.13;;;9.82;;
58308;SDS011;44117;57.142;24.826;2022-12-13T01:08:59;20.17;;;11.02;;
58308;SDS011;44117;57.142;24.826;2022-12-13T01:11:27;22.73;;;10.05;;
58308;SDS011;44117;57.142;24.826;2022-12-13T01:13:55;21.25;;;11.90;;
58308;SDS011;44117;57.142;24.826;2022-12-13T01:16:22;20.38;;;10.57;;
58308;SDS011;44117;57.142;24.826;2022-12-13T01:18:49;19.13;;;11.55;;
58308;SDS011;44117;57.142;24.826;2022-12-13T01:21:17;24.58;;;11.60;;
58308;SDS011;44117;57.142;24.826;2022-12-13T01:23:48;21.98;;;12.05;;
58308;SDS011;44117;57.142;24.826;2022-12-13T01:26:17;20.90;;;11.65;;
58308;SDS011;44117;57.142;24.826;2022-12-13T01:28:47;22.88;;;10.95;;
58308;SDS011;44117;57.142;24.826;2022-12-13T01:31:17;20.35;;;11.43;;
58308;SDS011;44117;57.142;24.826;2022-12-13T01:33:46;23.45;;;12.55;;
58308;SDS011;44117;57.142;24.826;2022-12-13T01:36:18;22.23;;;12.43;;
58308;SDS011;44117;57.142;24.826;2022-12-13T01:38:53;17.67;;;9.65;;
58308;SDS011;44117;57.142;24.826;2022-12-13T01:41:25;21.85;;;11.73;;
58308;SDS011;44117;57.142;24.826;2022-12-13T01:44:04;18.42;;;11.93;;
58308;SDS011;44117;57.142;24.826;2022-12-13T01:46:33;20.42;;;11.60;;
58308;SDS011;44117;57.142;24.826;2022-12-13T01:54:17;22.38;;;12.85;;
58308;SDS011;44117;57.142;24.826;2022-12-13T01:56:50;19.23;;;11.88;;
58308;SDS011;44117;57.142;24.826;2022-12-13T01:59:26;22.90;;;12.65;;
58308;SDS011;44117;57.142;24.826;2022-12-13T02:01:54;19.33;;;11.15;;
58308;SDS011;44117;57.142;24.826;2022-12-13T02:04:30;14.50;;;7.55;;
58308;SDS011;44117;57.142;24.826;2022-12-13T02:07:11;18.15;;;10.43;;
58308;SDS011;44117;57.142;24.826;2022-12-13T02:09:50;16.98;;;10.88;;
58308;SDS011;44117;57.142;24.826;2022-12-13T02:12:26;19.27;;;10.85;;
58308;SDS011;44117;57.142;24.826;2022-12-13T02:14:59;17.13;;;10.50;;
58308;SDS011;44117;57.142;24.826;2022-12-13T02:17:37;17.52;;;11.65;;
58308;SDS011;44117;57.142;24.826;2022-12-13T02:34:27;23.55;;;14.23;;
58308;SDS011;44117;57.142;24.826;2022-12-13T02:42:17;22.45;;;11.90;;
58308;SDS011;44117;57.142;24.826;2022-12-13T02:44:56;19.63;;;12.43;;
58308;SDS011;44117;57.142;24.826;2022-12-13T02:47:46;23.15;;;15.50;;
58308;SDS011;44117;57.142;24.826;2022-12-13T02:50:17;31.00;;;19.88;;
58308;SDS011;44117;57.142;24.826;2022-12-13T02:52:47;26.08;;;17.05;;
58308;SDS011;44117;57.142;24.826;2022-12-13T02:55:15;23.35;;;12.30;;
58308;SDS011;44117;57.142;24.826;2022-12-13T02:57:44;54.28;;;27.52;;
58308;SDS011;44117;57.142;24.826;2022-12-13T03:00:18;83.50;;;45.53;;
58308;SDS011;44117;57.142;24.826;2022-12-13T03:02:58;63.30;;;37.13;;
58308;SDS011;44117;57.142;24.826;2022-12-13T03:05:48;117.28;;;65.32;;
58308;SDS011;44117;57.142;24.826;2022-12-13T03:09:17;59.22;;;37.47;;
58308;SDS011;44117;57.142;24.826;2022-12-13T03:15:14;19.00;;;13.23;;
58308;SDS011;44117;57.142;24.826;2022-12-13T03:17:47;26.83;;;20.05;;
58308;SDS011;44117;57.142;24.826;2022-12-13T03:20:45;19.65;;;12.10;;
58308;SDS011;44117;57.142;24.826;2022-12-13T03:23:15;18.08;;;12.57;;
58308;SDS011;44117;57.142;24.826;2022-12-13T03:25:43;16.60;;;12.10;;
58308;SDS011;44117;57.142;24.826;2022-12-13T03:28:13;20.40;;;13.75;;
58308;SDS011;44117;57.142;24.826;2022-12-13T03:30:40;24.65;;;16.67;;
58308;SDS011;44117;57.142;24.826;2022-12-13T03:33:08;29.50;;;19.75;;
58308;SDS011;44117;57.142;24.826;2022-12-13T03:35:35;31.63;;;18.65;;
58308;SDS011;44117;57.142;24.826;2022-12-13T03:38:11;27.98;;;16.90;;
58308;SDS011;44117;57.142;24.826;2022-12-13T03:40:49;17.52;;;11.55;;
58308;SDS011;44117;57.142;24.826;2022-12-13T03:43:23;18.40;;;11.10;;
58308;SDS011;44117;57.142;24.826;2022-12-13T03:45:51;26.55;;;17.90;;
58308;SDS011;44117;57.142;24.826;2022-12-13T03:48:19;19.10;;;11.52;;
58308;SDS011;44117;57.142;24.826;2022-12-13T03:50:49;20.67;;;12.98;;
58308;SDS011;44117;57.142;24.826;2022-12-13T03:53:18;18.17;;;11.95;;
58308;SDS011;44117;57.142;24.826;2022-12-13T03:55:58;18.38;;;11.35;;
58308;SDS011;44117;57.142;24.826;2022-12-13T03:58:27;18.20;;;11.90;;
58308;SDS011;44117;57.142;24.826;2022-12-13T04:01:03;21.98;;;13.73;;
58308;SDS011;44117;57.142;24.826;2022-12-13T04:03:31;21.83;;;14.13;;
58308;SDS011;44117;57.142;24.826;2022-12-13T04:05:59;17.92;;;11.40;;
58308;SDS011;44117;57.142;24.826;2022-12-13T04:08:26;19.98;;;11.90;;
58308;SDS011;44117;57.142;24.826;2022-12-13T04:10:54;19.92;;;12.00;;
58308;SDS011;44117;57.142;24.826;2022-12-13T04:13:21;21.38;;;13.05;;
58308;SDS011;44117;57.142;24.826;2022-12-13T04:16:01;21.25;;;13.27;;
58308;SDS011;44117;57.142;24.826;2022-12-13T04:18:28;21.50;;;13.40;;
58308;SDS011;44117;57.142;24.826;2022-12-13T04:20:56;31.85;;;19.55;;
58308;SDS011;44117;57.142;24.826;2022-12-13T04:23:23;30.33;;;19.15;;
58308;SDS011;44117;57.142;24.826;2022-12-13T04:25:51;26.85;;;17.63;;
58308;SDS011;44117;57.142;24.826;2022-12-13T04:28:18;22.70;;;15.63;;
58308;SDS011;44117;57.142;24.826;2022-12-13T04:30:49;36.65;;;22.05;;
58308;SDS011;44117;57.142;24.826;2022-12-13T04:33:19;22.50;;;12.90;;
58308;SDS011;44117;57.142;24.826;2022-12-13T04:35:48;22.45;;;15.40;;
58308;SDS011;44117;57.142;24.826;2022-12-13T04:38:15;21.58;;;14.60;;
58308;SDS011;44117;57.142;24.826;2022-12-13T04:40:43;20.55;;;13.00;;
58308;SDS011;44117;57.142;24.826;2022-12-13T04:43:10;23.35;;;15.32;;
58308;SDS011;44117;57.142;24.826;2022-12-13T04:45:38;29.88;;;18.15;;
58308;SDS011;44117;57.142;24.826;2022-12-13T04:48:06;35.92;;;22.52;;
58308;SDS011;44117;57.142;24.826;2022-12-13T04:50:33;21.30;;;11.05;;
58308;SDS011;44117;57.142;24.826;2022-12-13T04:53:01;22.15;;;11.32;;
58308;SDS011;44117;57.142;24.826;2022-12-13T04:55:29;18.35;;;9.32;;
58308;SDS011;44117;57.142;24.826;2022-12-13T04:57:56;17.25;;;11.82;;
58308;SDS011;44117;57.142;24.826;2022-12-13T05:00:24;17.17;;;10.50;;
58308;SDS011;44117;57.142;24.826;2022-12-13T05:02:51;18.30;;;10.90;;
58308;SDS011;44117;57.142;24.826;2022-12-13T05:05:19;16.83;;;10.95;;
58308;SDS011;44117;57.142;24.826;2022-12-13T05:07:46;19.20;;;10.50;;
58308;SDS011;44117;57.142;24.826;2022-12-13T05:10:13;20.83;;;12.68;;
58308;SDS011;44117;57.142;24.826;2022-12-13T05:13:01;26.20;;;12.95;;
58308;SDS011;44117;57.142;24.826;2022-12-13T05:15:28;15.55;;;9.88;;
58308;SDS011;44117;57.142;24.826;2022-12-13T05:17:59;20.27;;;10.10;;
58308;SDS011;44117;57.142;24.826;2022-12-13T05:20:36;13.25;;;7.70;;
58308;SDS011;44117;57.142;24.826;2022-12-13T05:23:05;17.02;;;10.10;;
58308;SDS011;44117;57.142;24.826;2022-12-13T05:25:32;16.17;;;9.82;;
58308;SDS011;44117;57.142;24.826;2022-12-13T05:28:03;13.30;;;9.02;;
58308;SDS011;44117;57.142;24.826;2022-12-13T05:30:51;14.07;;;9.60;;
58308;SDS011;44117;57.142;24.826;2022-12-13T05:33:19;12.07;;;8.43;;
58308;SDS011;44117;57.142;24.826;2022-12-13T05:35:46;13.65;;;8.70;;
58308;SDS011;44117;57.142;24.826;2022-12-13T05:38:14;13.80;;;8.98;;
58308;SDS011;44117;57.142;24.826;2022-12-13T05:40:41;11.93;;;7.53;;
58308;SDS011;44117;57.142;24.826;2022-12-13T05:43:10;15.88;;;8.68;;
58308;SDS011;44117;57.142;24.826;2022-12-13T05:45:46;18.08;;;11.25;;
58308;SDS011;44117;57.142;24.826;2022-12-13T05:48:14;14.57;;;8.80;;
58308;SDS011;44117;57.142;24.826;2022-12-13T05:50:50;13.85;;;9.55;;
58308;SDS011;44117;57.142;24.826;2022-12-13T05:53:36;16.50;;;11.32;;
58308;SDS011;44117;57.142;24.826;2022-12-13T05:56:05;13.38;;;8.25;;
58308;SDS011;44117;57.142;24.826;2022-12-13T05:58:33;14.88;;;8.85;;
58308;SDS011;44117;57.142;24.826;2022-12-13T06:01:05;12.98;;;8.55;;
58308;SDS011;44117;57.142;24.826;2022-12-13T06:03:36;13.43;;;8.18;;
58308;SDS011;44117;57.142;24.826;2022-12-13T06:06:05;14.85;;;8.60;;
58308;SDS011;44117;57.142;24.826;2022-12-13T06:08:34;12.05;;;7.18;;
58308;SDS011;44117;57.142;24.826;2022-12-13T06:11:02;17.25;;;8.88;;
58308;SDS011;44117;57.142;24.826;2022-12-13T06:13:38;17.45;;;9.75;;
58308;SDS011;44117;57.142;24.826;2022-12-13T06:16:09;17.17;;;9.13;;
58308;SDS011;44117;57.142;24.826;2022-12-13T06:18:49;13.82;;;7.70;;
58308;SDS011;44117;57.142;24.826;2022-12-13T06:21:28;15.27;;;8.13;;
58308;SDS011;44117;57.142;24.826;2022-12-13T06:24:12;12.93;;;7.57;;
58308;SDS011;44117;57.142;24.826;2022-12-13T06:26:40;21.30;;;11.77;;
58308;SDS011;44117;57.142;24.826;2022-12-13T06:29:10;18.75;;;10.43;;
58308;SDS011;44117;57.142;24.826;2022-12-13T06:31:53;16.15;;;9.55;;
58308;SDS011;44117;57.142;24.826;2022-12-13T06:34:27;13.68;;;7.07;;
58308;SDS011;44117;57.142;24.826;2022-12-13T06:36:55;10.02;;;6.82;;
58308;SDS011;44117;57.142;24.826;2022-12-13T06:39:22;10.02;;;6.78;;
58308;SDS011;44117;57.142;24.826;2022-12-13T06:41:58;8.82;;;6.03;;
58308;SDS011;44117;57.142;24.826;2022-12-13T06:44:26;9.80;;;6.55;;
58308;SDS011;44117;57.142;24.826;2022-12-13T06:46:54;9.63;;;6.20;;
58308;SDS011;44117;57.142;24.826;2022-12-13T06:49:37;10.90;;;7.07;;
58308;SDS011;44117;57.142;24.826;2022-12-13T06:52:07;10.73;;;7.00;;
58308;SDS011;44117;57.142;24.826;2022-12-13T06:54:37;10.90;;;6.05;;
58308;SDS011;44117;57.142;24.826;2022-12-13T06:57:04;9.65;;;6.35;;
58308;SDS011;44117;57.142;24.826;2022-12-13T06:59:32;11.57;;;6.40;;
58308;SDS011;44117;57.142;24.826;2022-12-13T07:01:59;9.55;;;6.30;;
58308;SDS011;44117;57.142;24.826;2022-12-13T07:04:30;10.75;;;6.63;;
58308;SDS011;44117;57.142;24.826;2022-12-13T07:06:58;10.38;;;4.72;;
58308;SDS011;44117;57.142;24.826;2022-12-13T07:09:29;11.30;;;6.82;;
58308;SDS011;44117;57.142;24.826;2022-12-13T07:11:57;11.77;;;7.35;;
58308;SDS011;44117;57.142;24.826;2022-12-13T07:14:26;9.77;;;6.38;;
58308;SDS011;44117;57.142;24.826;2022-12-13T07:16:54;10.45;;;6.50;;
58308;SDS011;44117;57.142;24.826;2022-12-13T07:19:29;11.38;;;6.30;;
58308;SDS011;44117;57.142;24.826;2022-12-13T07:22:00;26.13;;;13.00;;
58308;SDS011;44117;57.142;24.826;2022-12-13T07:24:31;14.07;;;8.38;;
58308;SDS011;44117;57.142;24.826;2022-12-13T07:27:01;10.05;;;6.47;;
58308;SDS011;44117;57.142;24.826;2022-12-13T07:29:29;13.18;;;7.72;;
58308;SDS011;44117;57.142;24.826;2022-12-13T07:31:56;9.35;;;6.07;;
58308;SDS011;44117;57.142;24.826;2022-12-13T07:34:27;21.95;;;13.75;;
58308;SDS011;44117;57.142;24.826;2022-12-13T07:36:55;13.20;;;7.60;;
58308;SDS011;44117;57.142;24.826;2022-12-13T07:39:23;13.68;;;7.45;;
58308;SDS011;44117;57.142;24.826;2022-12-13T07:41:54;9.30;;;6.13;;
58308;SDS011;44117;57.142;24.826;2022-12-13T07:44:22;13.70;;;7.45;;
58308;SDS011;44117;57.142;24.826;2022-12-13T07:46:50;15.35;;;7.72;;
58308;SDS011;44117;57.142;24.826;2022-12-13T07:49:18;25.40;;;13.90;;
58308;SDS011;44117;57.142;24.826;2022-12-13T07:51:45;16.27;;;8.77;;
58308;SDS011;44117;57.142;24.826;2022-12-13T07:54:13;42.03;;;14.15;;
58308;SDS011;44117;57.142;24.826;2022-12-13T07:56:40;14.40;;;9.32;;
58308;SDS011;44117;57.142;24.826;2022-12-13T07:59:08;16.50;;;9.23;;
58308;SDS011;44117;57.142;24.826;2022-12-13T08:01:36;24.17;;;11.00;;
58308;SDS011;44117;57.142;24.826;2022-12-13T08:04:03;14.30;;;8.82;;
58308;SDS011;44117;57.142;24.826;2022-12-13T08:06:35;14.82;;;7.85;;
58308;SDS011;44117;57.142;24.826;2022-12-13T08:09:03;39.95;;;21.98;;
58308;SDS011;44117;57.142;24.826;2022-12-13T08:11:31;24.50;;;13.02;;
58308;SDS011;44117;57.142;24.826;2022-12-13T08:13:59;16.02;;;10.70;;
58308;SDS011;44117;57.142;24.826;2022-12-13T08:16:26;25.38;;;13.85;;
58308;SDS011;44117;57.142;24.826;2022-12-13T08:18:58;13.85;;;9.13;;
58308;SDS011;44117;57.142;24.826;2022-12-13T08:21:47;17.42;;;11.55;;
58308;SDS011;44117;57.142;24.826;2022-12-13T08:24:21;11.55;;;8.18;;
58308;SDS011;44117;57.142;24.826;2022-12-13T08:26:53;13.98;;;9.55;;
58308;SDS011;44117;57.142;24.826;2022-12-13T08:29:22;9.25;;;6.80;;
58308;SDS011;44117;57.142;24.826;2022-12-13T08:32:02;14.38;;;8.63;;
58308;SDS011;44117;57.142;24.826;2022-12-13T08:34:31;15.27;;;9.38;;
58308;SDS011;44117;57.142;24.826;2022-12-13T08:36:58;12.52;;;7.95;;
58308;SDS011;44117;57.142;24.826;2022-12-13T08:39:27;11.50;;;6.93;;
58308;SDS011;44117;57.142;24.826;2022-12-13T08:41:54;14.48;;;8.07;;
58308;SDS011;44117;57.142;24.826;2022-12-13T08:44:22;15.02;;;9.48;;
58308;SDS011;44117;57.142;24.826;2022-12-13T08:46:49;17.08;;;9.48;;
58308;SDS011;44117;57.142;24.826;2022-12-13T08:49:17;32.58;;;14.90;;
58308;SDS011;44117;57.142;24.826;2022-12-13T08:51:44;14.43;;;8.85;;
58308;SDS011;44117;57.142;24.826;2022-12-13T08:54:11;9.18;;;6.20;;
58308;SDS011;44117;57.142;24.826;2022-12-13T08:56:56;16.30;;;7.60;;
58308;SDS011;44117;57.142;24.826;2022-12-13T08:59:24;12.43;;;7.03;;
58308;SDS011;44117;57.142;24.826;2022-12-13T09:01:52;11.85;;;7.78;;
58308;SDS011;44117;57.142;24.826;2022-12-13T09:04:22;10.65;;;7.32;;
58308;SDS011;44117;57.142;24.826;2022-12-13T09:06:57;16.48;;;11.82;;
58308;SDS011;44117;57.142;24.826;2022-12-13T09:09:27;11.43;;;7.20;;
58308;SDS011;44117;57.142;24.826;2022-12-13T09:11:55;14.13;;;8.88;;
58308;SDS011;44117;57.142;24.826;2022-12-13T09:14:25;30.20;;;23.25;;
58308;SDS011;44117;57.142;24.826;2022-12-13T09:16:59;13.07;;;7.03;;
58308;SDS011;44117;57.142;24.826;2022-12-13T09:19:29;10.93;;;7.05;;
58308;SDS011;44117;57.142;24.826;2022-12-13T09:22:02;17.40;;;8.80;;
58308;SDS011;44117;57.142;24.826;2022-12-13T09:24:30;17.50;;;9.02;;
58308;SDS011;44117;57.142;24.826;2022-12-13T09:27:02;13.07;;;7.03;;
58308;SDS011;44117;57.142;24.826;2022-12-13T09:29:35;9.50;;;6.25;;
58308;SDS011;44117;57.142;24.826;2022-12-13T09:32:04;10.98;;;6.97;;
58308;SDS011;44117;57.142;24.826;2022-12-13T09:34:31;12.60;;;7.97;;
58308;SDS011;44117;57.142;24.826;2022-12-13T09:36:59;15.82;;;8.43;;
58308;SDS011;44117;57.142;24.826;2022-12-13T09:39:27;10.50;;;6.57;;
58308;SDS011;44117;57.142;24.826;2022-12-13T09:41:55;11.93;;;7.78;;
58308;SDS011;44117;57.142;24.826;2022-12-13T09:44:33;16.83;;;9.50;;
58308;SDS011;44117;57.142;24.826;2022-12-13T09:47:14;33.30;;;17.85;;
58308;SDS011;44117;57.142;24.826;2022-12-13T09:49:50;9.38;;;5.38;;
58308;SDS011;44117;57.142;24.826;2022-12-13T09:52:20;14.00;;;7.88;;
58308;SDS011;44117;57.142;24.826;2022-12-13T09:54:54;15.02;;;7.60;;
58308;SDS011;44117;57.142;24.826;2022-12-13T09:57:26;32.30;;;20.33;;
58308;SDS011;44117;57.142;24.826;2022-12-13T10:00:06;14.13;;;6.90;;
58308;SDS011;44117;57.142;24.826;2022-12-13T10:02:41;17.50;;;9.50;;
58308;SDS011;44117;57.142;24.826;2022-12-13T10:08:06;21.92;;;11.63;;
58308;SDS011;44117;57.142;24.826;2022-12-13T10:10:38;17.70;;;9.60;;
58308;SDS011;44117;57.142;24.826;2022-12-13T10:13:17;23.65;;;11.43;;
58308;SDS011;44117;57.142;24.826;2022-12-13T10:15:56;20.02;;;9.82;;
58308;SDS011;44117;57.142;24.826;2022-12-13T10:18:35;12.30;;;7.80;;
58308;SDS011;44117;57.142;24.826;2022-12-13T10:21:15;11.45;;;7.45;;
58308;SDS011;44117;57.142;24.826;2022-12-13T10:23:52;14.70;;;7.07;;
58308;SDS011;44117;57.142;24.826;2022-12-13T10:26:39;15.88;;;9.23;;
58308;SDS011;44117;57.142;24.826;2022-12-13T10:29:07;14.68;;;8.18;;
58308;SDS011;44117;57.142;24.826;2022-12-13T10:31:38;11.23;;;6.72;;
58308;SDS011;44117;57.142;24.826;2022-12-13T10:34:26;14.52;;;9.00;;
58308;SDS011;44117;57.142;24.826;2022-12-13T10:39:38;14.90;;;7.40;;
58308;SDS011;44117;57.142;24.826;2022-12-13T10:42:13;13.98;;;8.52;;
58308;SDS011;44117;57.142;24.826;2022-12-13T10:45:07;12.65;;;8.60;;
58308;SDS011;44117;57.142;24.826;2022-12-13T10:47:49;14.48;;;7.93;;
58308;SDS011;44117;57.142;24.826;2022-12-13T10:50:22;10.05;;;7.03;;
58308;SDS011;44117;57.142;24.826;2022-12-13T10:52:51;13.68;;;7.95;;
58308;SDS011;44117;57.142;24.826;2022-12-13T10:57:56;14.90;;;8.48;;
58308;SDS011;44117;57.142;24.826;2022-12-13T11:00:34;8.88;;;6.88;;
58308;SDS011;44117;57.142;24.826;2022-12-13T11:03:12;13.95;;;8.98;;
58308;SDS011;44117;57.142;24.826;2022-12-13T11:06:05;18.15;;;10.20;;
58308;SDS011;44117;57.142;24.826;2022-12-13T11:08:40;10.10;;;6.18;;
58308;SDS011;44117;57.142;24.826;2022-12-13T11:11:08;17.35;;;10.90;;
58308;SDS011;44117;57.142;24.826;2022-12-13T11:13:39;8.88;;;6.32;;
58308;SDS011;44117;57.142;24.826;2022-12-13T11:16:25;10.98;;;6.97;;
58308;SDS011;44117;57.142;24.826;2022-12-13T11:19:19;16.33;;;10.27;;
58308;SDS011;44117;57.142;24.826;2022-12-13T11:21:50;10.32;;;6.25;;
58308;SDS011;44117;57.142;24.826;2022-12-13T11:24:23;8.38;;;6.05;;
58308;SDS011;44117;57.142;24.826;2022-12-13T11:27:05;9.00;;;5.93;;
58308;SDS011;44117;57.142;24.826;2022-12-13T11:30:11;11.38;;;7.80;;
58308;SDS011;44117;57.142;24.826;2022-12-13T11:40:40;21.75;;;13.63;;
58308;SDS011;44117;57.142;24.826;2022-12-13T11:45:54;20.42;;;12.45;;
58308;SDS011;44117;57.142;24.826;2022-12-13T11:48:31;13.05;;;8.30;;
58308;SDS011;44117;57.142;24.826;2022-12-13T11:51:08;10.15;;;6.07;;
58308;SDS011;44117;57.142;24.826;2022-12-13T11:58:43;10.30;;;6.95;;
58308;SDS011;44117;57.142;24.826;2022-12-13T12:01:50;11.38;;;7.22;;
58308;SDS011;44117;57.142;24.826;2022-12-13T12:04:33;9.63;;;6.32;;
58308;SDS011;44117;57.142;24.826;2022-12-13T12:07:12;9.45;;;5.88;;
58308;SDS011;44117;57.142;24.826;2022-12-13T12:10:19;9.82;;;6.05;;
58308;SDS011;44117;57.142;24.826;2022-12-13T12:12:56;8.63;;;5.65;;
58308;SDS011;44117;57.142;24.826;2022-12-13T12:15:31;8.48;;;5.93;;
58308;SDS011;44117;57.142;24.826;2022-12-13T12:18:12;10.20;;;6.28;;
58308;SDS011;44117;57.142;24.826;2022-12-13T12:23:57;8.05;;;5.13;;
58308;SDS011;44117;57.142;24.826;2022-12-13T12:26:39;10.82;;;6.55;;
58308;SDS011;44117;57.142;24.826;2022-12-13T12:29:42;8.45;;;5.55;;
58308;SDS011;44117;57.142;24.826;2022-12-13T12:41:16;8.27;;;5.82;;
58308;SDS011;44117;57.142;24.826;2022-12-13T12:44:01;6.78;;;4.47;;
58308;SDS011;44117;57.142;24.826;2022-12-13T12:56:11;17.85;;;10.55;;
58308;SDS011;44117;57.142;24.826;2022-12-13T12:59:07;32.10;;;20.75;;
58308;SDS011;44117;57.142;24.826;2022-12-13T13:02:00;39.38;;;23.63;;
58308;SDS011;44117;57.142;24.826;2022-12-13T13:04:52;12.20;;;7.53;;
58308;SDS011;44117;57.142;24.826;2022-12-13T13:07:30;8.38;;;4.97;;
58308;SDS011;44117;57.142;24.826;2022-12-13T13:10:05;8.20;;;5.40;;
58308;SDS011;44117;57.142;24.826;2022-12-13T13:12:52;15.98;;;10.23;;
58308;SDS011;44117;57.142;24.826;2022-12-13T13:18:06;6.13;;;4.55;;
58308;SDS011;44117;57.142;24.826;2022-12-13T13:26:36;9.00;;;6.75;;
58308;SDS011;44117;57.142;24.826;2022-12-13T13:35:00;15.57;;;8.82;;
58308;SDS011;44117;57.142;24.826;2022-12-13T13:37:54;9.02;;;6.20;;
58308;SDS011;44117;57.142;24.826;2022-12-13T13:48:37;8.18;;;5.28;;
58308;SDS011;44117;57.142;24.826;2022-12-13T13:54:34;10.25;;;7.00;;
58308;SDS011;44117;57.142;24.826;2022-12-13T14:06:52;16.33;;;8.63;;
58308;SDS011;44117;57.142;24.826;2022-12-13T14:09:32;20.08;;;11.13;;
58308;SDS011;44117;57.142;24.826;2022-12-13T14:26:21;70.47;;;27.92;;
58308;SDS011;44117;57.142;24.826;2022-12-13T14:28:57;27.55;;;14.05;;
58308;SDS011;44117;57.142;24.826;2022-12-13T14:34:31;26.50;;;12.63;;
58308;SDS011;44117;57.142;24.826;2022-12-13T14:36:59;13.63;;;8.07;;
58308;SDS011;44117;57.142;24.826;2022-12-13T14:39:29;12.25;;;8.23;;
58308;SDS011;44117;57.142;24.826;2022-12-13T14:42:00;10.23;;;5.70;;
58308;SDS011;44117;57.142;24.826;2022-12-13T14:44:30;9.82;;;5.68;;
58308;SDS011;44117;57.142;24.826;2022-12-13T14:47:01;10.00;;;7.35;;
58308;SDS011;44117;57.142;24.826;2022-12-13T14:49:34;8.95;;;5.78;;
58308;SDS011;44117;57.142;24.826;2022-12-13T14:52:05;10.02;;;6.53;;
58308;SDS011;44117;57.142;24.826;2022-12-13T14:54:55;10.30;;;6.53;;
58308;SDS011;44117;57.142;24.826;2022-12-13T14:57:28;13.07;;;8.63;;
58308;SDS011;44117;57.142;24.826;2022-12-13T14:59:58;49.17;;;26.45;;
58308;SDS011;44117;57.142;24.826;2022-12-13T15:02:29;116.85;;;62.33;;
58308;SDS011;44117;57.142;24.826;2022-12-13T15:04:58;60.45;;;34.83;;
58308;SDS011;44117;57.142;24.826;2022-12-13T15:07:35;23.02;;;14.98;;
58308;SDS011;44117;57.142;24.826;2022-12-13T15:12:41;18.60;;;11.05;;
58308;SDS011;44117;57.142;24.826;2022-12-13T15:15:16;17.67;;;9.40;;
58308;SDS011;44117;57.142;24.826;2022-12-13T15:18:03;12.85;;;7.07;;
58308;SDS011;44117;57.142;24.826;2022-12-13T15:20:43;13.40;;;7.65;;
58308;SDS011;44117;57.142;24.826;2022-12-13T15:28:55;15.73;;;10.63;;
58308;SDS011;44117;57.142;24.826;2022-12-13T15:31:26;15.23;;;8.68;;
58308;SDS011;44117;57.142;24.826;2022-12-13T15:33:56;20.60;;;12.35;;
58308;SDS011;44117;57.142;24.826;2022-12-13T15:36:55;16.10;;;10.55;;
58308;SDS011;44117;57.142;24.826;2022-12-13T15:39:26;15.25;;;8.75;;
58308;SDS011;44117;57.142;24.826;2022-12-13T15:41:54;20.63;;;12.43;;
58308;SDS011;44117;57.142;24.826;2022-12-13T15:44:25;14.48;;;9.63;;
58308;SDS011;44117;57.142;24.826;2022-12-13T15:46:58;13.77;;;8.75;;
58308;SDS011;44117;57.142;24.826;2022-12-13T15:49:34;13.77;;;9.73;;
58308;SDS011;44117;57.142;24.826;2022-12-13T15:54:40;11.02;;;8.32;;
58308;SDS011;44117;57.142;24.826;2022-12-13T15:57:15;13.88;;;10.60;;
58308;SDS011;44117;57.142;24.826;2022-12-13T15:59:59;17.83;;;12.68;;
58308;SDS011;44117;57.142;24.826;2022-12-13T16:05:42;18.55;;;12.85;;
58308;SDS011;44117;57.142;24.826;2022-12-13T16:08:30;17.95;;;11.85;;
58308;SDS011;44117;57.142;24.826;2022-12-13T16:11:04;13.02;;;9.15;;
58308;SDS011;44117;57.142;24.826;2022-12-13T16:13:33;16.35;;;11.10;;
58308;SDS011;44117;57.142;24.826;2022-12-13T16:16:22;23.27;;;14.80;;
58308;SDS011;44117;57.142;24.826;2022-12-13T16:18:54;16.50;;;11.73;;
58308;SDS011;44117;57.142;24.826;2022-12-13T16:21:24;20.05;;;12.93;;
58308;SDS011;44117;57.142;24.826;2022-12-13T16:23:52;24.65;;;15.40;;
58308;SDS011;44117;57.142;24.826;2022-12-13T16:26:21;19.90;;;12.85;;
58308;SDS011;44117;57.142;24.826;2022-12-13T16:28:52;13.30;;;8.32;;
58308;SDS011;44117;57.142;24.826;2022-12-13T16:31:21;17.75;;;11.65;;
58308;SDS011;44117;57.142;24.826;2022-12-13T16:33:51;14.20;;;9.60;;
58308;SDS011;44117;57.142;24.826;2022-12-13T16:36:18;15.63;;;8.18;;
58308;SDS011;44117;57.142;24.826;2022-12-13T16:38:45;14.40;;;7.68;;
58308;SDS011;44117;57.142;24.826;2022-12-13T16:41:13;15.43;;;8.52;;
58308;SDS011;44117;57.142;24.826;2022-12-13T16:46:26;18.48;;;11.13;;
58308;SDS011;44117;57.142;24.826;2022-12-13T16:49:26;14.90;;;10.05;;
58308;SDS011;44117;57.142;24.826;2022-12-13T16:51:55;18.42;;;10.02;;
58308;SDS011;44117;57.142;24.826;2022-12-13T16:54:23;11.23;;;6.45;;
58308;SDS011;44117;57.142;24.826;2022-12-13T16:56:52;13.02;;;8.32;;
58308;SDS011;44117;57.142;24.826;2022-12-13T16:59:20;15.80;;;8.82;;
58308;SDS011;44117;57.142;24.826;2022-12-13T17:01:50;13.60;;;8.05;;
58308;SDS011;44117;57.142;24.826;2022-12-13T17:04:18;20.05;;;9.27;;
58308;SDS011;44117;57.142;24.826;2022-12-13T17:06:48;19.02;;;9.18;;
58308;SDS011;44117;57.142;24.826;2022-12-13T17:09:20;15.80;;;9.30;;
58308;SDS011;44117;57.142;24.826;2022-12-13T17:11:48;12.88;;;7.03;;
58308;SDS011;44117;57.142;24.826;2022-12-13T17:14:15;14.65;;;6.90;;
58308;SDS011;44117;57.142;24.826;2022-12-13T17:16:43;18.90;;;10.90;;